createdAt,value
2023-04-05T00:01:58.652Z,0.01
2023-04-05T00:04:25.209Z,-0.14
2023-04-05T00:06:53.118Z,-0.35
2023-04-05T00:09:21.087Z,-0.22
2023-04-05T00:11:53.499Z,-0.32
2023-04-05T00:14:19.891Z,-0.13
2023-04-05T00:16:46.510Z,-0.24
2023-04-05T00:19:13.066Z,-0.31
2023-04-05T00:21:40.411Z,-0.29
2023-04-05T00:24:08.045Z,-0.38
2023-04-05T00:26:36.254Z,-0.39
2023-04-05T00:29:02.796Z,-0.47
2023-04-05T00:31:30.631Z,-0.47
2023-04-05T00:33:57.306Z,-0.56
2023-04-05T00:36:24.022Z,-0.47
2023-04-05T00:38:50.514Z,-0.61
2023-04-05T00:41:17.168Z,-0.57
2023-04-05T00:43:43.749Z,-0.68
2023-04-05T00:46:10.596Z,-0.76
2023-04-05T00:48:38.597Z,-0.91
2023-04-05T00:51:09.401Z,-1.09
2023-04-05T00:53:37.872Z,-1.08
2023-04-05T00:56:05.026Z,-1.12
2023-04-05T00:58:31.993Z,-1.33
2023-04-05T01:01:13.629Z,-0.94
2023-04-05T01:03:44.859Z,-1.01
2023-04-05T01:06:20.859Z,-1.01
2023-04-05T01:09:16.951Z,-1.16
2023-04-05T01:11:47.350Z,-1.11
2023-04-05T01:14:14.197Z,-1.04
2023-04-05T01:16:40.789Z,-0.90
2023-04-05T01:19:10.034Z,-0.78
2023-04-05T01:21:53.754Z,-0.92
2023-04-05T01:24:50.826Z,-1.03
2023-04-05T01:27:48.918Z,-1.09
2023-04-05T01:30:23.589Z,-1.00
2023-04-05T01:33:05.567Z,-1.17
2023-04-05T01:35:41.961Z,-1.12
2023-04-05T01:38:13.855Z,-1.29
2023-04-05T01:40:42.383Z,-1.33
2023-04-05T01:43:18.388Z,-1.28
2023-04-05T01:45:46.235Z,-1.36
2023-04-05T01:48:14.038Z,-1.40
2023-04-05T01:50:40.914Z,-1.48
2023-04-05T01:53:08.633Z,-1.52
2023-04-05T01:55:35.276Z,-1.61
2023-04-05T01:58:01.743Z,-1.61
2023-04-05T02:00:28.339Z,-1.56
2023-04-05T02:02:54.842Z,-1.63
2023-04-05T02:05:21.306Z,-1.69
2023-04-05T02:07:47.823Z,-1.69
2023-04-05T02:10:15.916Z,-1.73
2023-04-05T02:12:42.391Z,-1.73
2023-04-05T02:15:09.388Z,-1.75
2023-04-05T02:17:39.317Z,-1.71
2023-04-05T02:20:10.543Z,-1.80
2023-04-05T02:22:41.534Z,-1.85
2023-04-05T02:25:11.846Z,-1.92
2023-04-05T02:27:38.541Z,-1.87
2023-04-05T02:30:05.894Z,-1.95
2023-04-05T02:32:32.478Z,-1.96
2023-04-05T02:34:58.934Z,-1.83
2023-04-05T02:37:27.108Z,-1.69
2023-04-05T02:39:54.258Z,-1.67
2023-04-05T02:42:20.707Z,-1.66
2023-04-05T02:44:47.275Z,-1.80
2023-04-05T02:47:17.393Z,-1.81
2023-04-05T02:49:43.843Z,-1.86
2023-04-05T02:52:10.659Z,-2.00
2023-04-05T02:54:37.111Z,-2.11
2023-04-05T02:57:03.823Z,-2.07
2023-04-05T02:59:30.948Z,-2.02
2023-04-05T03:01:57.439Z,-1.98
2023-04-05T03:04:26.655Z,-2.04
2023-04-05T03:06:54.931Z,-2.14
2023-04-05T03:09:22.452Z,-2.34
2023-04-05T03:11:49.142Z,-2.39
2023-04-05T03:14:15.613Z,-2.44
2023-04-05T03:16:42.325Z,-2.46
2023-04-05T03:19:09.152Z,-2.43
2023-04-05T03:21:35.730Z,-2.36
2023-04-05T03:24:02.945Z,-2.32
2023-04-05T03:26:29.365Z,-2.29
2023-04-05T03:28:56.137Z,-2.34
2023-04-05T03:31:22.613Z,-2.42
2023-04-05T03:33:49.206Z,-2.42
2023-04-05T03:36:19.876Z,-2.42
2023-04-05T03:38:46.347Z,-2.47
2023-04-05T03:41:12.822Z,-2.48
2023-04-05T03:43:39.455Z,-2.52
2023-04-05T03:46:06.085Z,-2.58
2023-04-05T03:48:32.647Z,-2.62
2023-04-05T03:50:59.110Z,-2.57
2023-04-05T03:53:26.428Z,-2.47
2023-04-05T03:55:55.707Z,-2.44
2023-04-05T03:58:22.308Z,-2.43
2023-04-05T04:00:50.467Z,-2.49
2023-04-05T04:03:16.885Z,-2.59
2023-04-05T04:05:43.586Z,-2.72
2023-04-05T04:08:11.014Z,-2.63
2023-04-05T04:10:37.449Z,-2.68
2023-04-05T04:13:03.975Z,-2.73
2023-04-05T04:15:31.336Z,-2.79
2023-04-05T04:17:57.847Z,-2.81
2023-04-05T04:20:24.366Z,-2.82
2023-04-05T04:22:53.843Z,-2.92
2023-04-05T04:25:20.555Z,-2.98
2023-04-05T04:27:47.998Z,-3.00
2023-04-05T04:30:15.752Z,-2.96
2023-04-05T04:32:53.022Z,-2.94
2023-04-05T04:35:24.793Z,-2.88
2023-04-05T04:37:54.770Z,-2.91
2023-04-05T04:40:22.887Z,-2.87
2023-04-05T04:42:49.502Z,-2.85
2023-04-05T04:45:17.526Z,-2.80
2023-04-05T04:47:47.259Z,-2.80
2023-04-05T04:50:16.227Z,-2.77
2023-04-05T04:52:42.965Z,-2.71
2023-04-05T04:55:10.313Z,-2.63
2023-04-05T04:57:36.772Z,-2.60
2023-04-05T05:00:07.990Z,-2.67
2023-04-05T05:02:34.728Z,-2.64
2023-04-05T05:05:01.176Z,-2.64
2023-04-05T05:07:28.695Z,-2.59
2023-04-05T05:09:55.196Z,-2.46
2023-04-05T05:12:22.175Z,-2.40
2023-04-05T05:14:48.664Z,-1.88
2023-04-05T05:17:15.458Z,-1.21
2023-04-05T05:19:41.877Z,-1.01
2023-04-05T05:22:08.389Z,-0.75
2023-04-05T05:24:34.962Z,-0.85
2023-04-05T05:27:01.350Z,-1.18
2023-04-05T05:29:27.898Z,-1.36
2023-04-05T05:31:55.348Z,-1.44
2023-04-05T05:34:22.084Z,-1.40
2023-04-05T05:36:49.186Z,-1.27
2023-04-05T05:39:16.033Z,-1.12
2023-04-05T05:41:43.988Z,-1.00
2023-04-05T05:44:10.924Z,-0.80
2023-04-05T05:46:37.774Z,-0.91
2023-04-05T05:49:04.421Z,-1.23
2023-04-05T05:51:32.377Z,-1.08
2023-04-05T05:53:58.940Z,-0.95
2023-04-05T05:56:25.530Z,-0.95
2023-04-05T05:58:52.008Z,-0.97
2023-04-05T06:01:22.868Z,-0.86
2023-04-05T06:03:50.545Z,-0.75
2023-04-05T06:06:17.053Z,-0.76
2023-04-05T06:08:43.595Z,-0.75
2023-04-05T06:11:21.640Z,-0.69
2023-04-05T06:13:48.728Z,-0.44
2023-04-05T06:16:15.274Z,-0.28
2023-04-05T06:18:41.867Z,-0.15
2023-04-05T06:21:08.493Z,-0.05
2023-04-05T06:23:35.170Z,-0.04
2023-04-05T06:26:01.712Z,-0.06
2023-04-05T06:28:28.596Z,-0.04
2023-04-05T06:30:58.159Z,0.01
2023-04-05T06:33:25.038Z,-0.03
2023-04-05T06:35:51.651Z,0.01
2023-04-05T06:38:18.380Z,0.04
2023-04-05T06:40:44.926Z,-0.15
2023-04-05T06:43:12.475Z,0.12
2023-04-05T06:45:38.940Z,0.24
2023-04-05T06:48:06.160Z,0.30
2023-04-05T06:50:32.745Z,0.42
2023-04-05T06:52:59.202Z,0.48
2023-04-05T06:55:25.770Z,0.58
2023-04-05T06:57:52.228Z,0.73
2023-04-05T07:00:18.969Z,0.97
2023-04-05T07:02:46.012Z,1.16
2023-04-05T07:05:12.614Z,1.36
2023-04-05T07:07:41.040Z,1.43
2023-04-05T07:10:08.102Z,1.88
2023-04-05T07:12:34.651Z,1.94
2023-04-05T07:15:01.211Z,2.23
2023-04-05T07:17:27.922Z,2.42
2023-04-05T07:19:54.399Z,3.14
2023-04-05T07:22:20.932Z,3.08
2023-04-05T07:24:48.530Z,2.89
2023-04-05T07:27:16.005Z,3.03
2023-04-05T07:29:44.552Z,3.32
2023-04-05T07:32:12.045Z,3.73
2023-04-05T07:34:38.586Z,4.03
2023-04-05T07:37:06.534Z,5.23
2023-04-05T07:39:34.091Z,5.68
2023-04-05T07:42:00.580Z,6.60
2023-04-05T07:44:27.081Z,7.01
2023-04-05T07:46:53.589Z,7.38
2023-04-05T07:49:25.055Z,7.66
2023-04-05T07:51:54.867Z,8.01
2023-04-05T07:54:21.307Z,8.28
2023-04-05T07:56:49.444Z,8.54
2023-04-05T07:59:16.653Z,8.13
2023-04-05T08:01:43.426Z,7.93
2023-04-05T08:04:10.020Z,7.81
2023-04-05T08:06:37.651Z,7.72
2023-04-05T08:09:05.918Z,7.79
2023-04-05T08:11:33.284Z,8.04
2023-04-05T08:14:00.907Z,8.33
2023-04-05T08:16:28.434Z,8.38
2023-04-05T08:18:54.912Z,8.46
2023-04-05T08:21:22.720Z,8.60
2023-04-05T08:23:50.198Z,8.69
2023-04-05T08:26:18.787Z,8.43
2023-04-05T08:28:45.379Z,8.39
2023-04-05T08:31:13.755Z,8.16
2023-04-05T08:33:40.862Z,8.19
2023-04-05T08:36:09.219Z,7.83
2023-04-05T08:38:36.074Z,8.04
2023-04-05T08:41:18.588Z,8.98
2023-04-05T08:43:55.171Z,9.24
2023-04-05T08:46:22.989Z,8.90
2023-04-05T08:48:50.284Z,9.53
2023-04-05T08:51:24.151Z,9.61
2023-04-05T08:53:53.525Z,9.13
2023-04-05T08:56:29.320Z,9.24
2023-04-05T08:59:01.829Z,9.44
2023-04-05T09:01:31.030Z,8.22
2023-04-05T09:04:01.633Z,9.06
2023-04-05T09:06:29.677Z,9.47
2023-04-05T09:08:58.331Z,9.52
2023-04-05T09:11:25.415Z,9.48
2023-04-05T09:13:52.200Z,9.76
2023-04-05T09:16:20.588Z,10.08
2023-04-05T09:18:47.354Z,9.98
2023-04-05T09:21:13.843Z,9.43
2023-04-05T09:23:52.609Z,9.31
2023-04-05T09:26:22.182Z,10.10
2023-04-05T09:28:48.877Z,10.04
2023-04-05T09:31:32.537Z,9.80
2023-04-05T09:34:01.121Z,9.95
2023-04-05T09:36:28.394Z,9.94
2023-04-05T09:39:05.550Z,9.42
2023-04-05T09:41:32.337Z,9.54
2023-04-05T09:43:58.791Z,9.84
2023-04-05T09:46:32.251Z,10.05
2023-04-05T09:48:58.850Z,10.45
2023-04-05T09:51:32.614Z,10.31
2023-04-05T09:54:02.154Z,10.24
2023-04-05T09:56:31.345Z,10.02
2023-04-05T09:59:17.159Z,10.37
2023-04-05T10:01:51.535Z,9.61
2023-04-05T10:04:22.015Z,9.61
2023-04-05T10:06:48.685Z,9.93
2023-04-05T10:09:17.763Z,9.98
2023-04-05T10:11:45.867Z,10.29
2023-04-05T10:14:12.372Z,10.33
2023-04-05T10:16:48.998Z,9.94
2023-04-05T10:19:53.190Z,9.90
2023-04-05T10:22:52.576Z,9.94
2023-04-05T10:25:44.762Z,9.83
2023-04-05T10:28:12.482Z,10.20
2023-04-05T10:30:41.111Z,10.83
2023-04-05T10:33:14.176Z,10.45
2023-04-05T10:35:50.246Z,9.65
2023-04-05T10:38:22.441Z,10.21
2023-04-05T10:40:50.112Z,10.80
2023-04-05T10:43:19.505Z,10.47
2023-04-05T10:45:48.078Z,10.36
2023-04-05T10:48:33.378Z,9.87
2023-04-05T10:51:00.182Z,10.24
2023-04-05T10:53:27.391Z,10.97
2023-04-05T10:55:55.613Z,10.72
2023-04-05T10:58:25.028Z,10.59
2023-04-05T11:00:52.231Z,10.74
2023-04-05T11:03:38.879Z,10.90
2023-04-05T11:06:17.447Z,10.23
2023-04-05T11:08:44.786Z,9.91
2023-04-05T11:11:15.931Z,10.02
2023-04-05T11:14:02.581Z,10.26
2023-04-05T11:16:38.896Z,9.62
2023-04-05T11:19:05.332Z,10.22
2023-04-05T11:21:31.922Z,10.45
2023-04-05T11:24:01.511Z,10.29
2023-04-05T11:26:40.926Z,9.76
2023-04-05T11:29:07.933Z,9.76
2023-04-05T11:31:34.441Z,9.27
2023-04-05T11:34:12.576Z,9.40
2023-04-05T11:36:41.927Z,9.62
2023-04-05T11:39:23.713Z,10.49
2023-04-05T11:41:59.252Z,10.64
2023-04-05T11:44:25.687Z,10.62
2023-04-05T11:46:53.064Z,10.19
2023-04-05T11:49:21.276Z,10.72
2023-04-05T11:51:49.045Z,10.32
2023-04-05T11:54:28.018Z,9.37
2023-04-05T11:56:54.445Z,9.58
2023-04-05T11:59:28.137Z,9.51
2023-04-05T12:02:06.383Z,10.05
2023-04-05T12:04:32.886Z,10.33
2023-04-05T12:07:09.994Z,9.68
2023-04-05T12:09:36.435Z,9.10
2023-04-05T12:12:03.028Z,9.33
2023-04-05T12:14:29.704Z,9.46
2023-04-05T12:16:56.192Z,9.65
2023-04-05T12:19:23.088Z,9.86
2023-04-05T12:21:49.420Z,9.65
2023-04-05T12:24:15.818Z,9.14
2023-04-05T12:26:42.278Z,9.28
2023-04-05T12:29:08.879Z,9.96
2023-04-05T12:31:43.467Z,10.31
2023-04-05T12:34:10.974Z,10.49
2023-04-05T12:36:38.959Z,10.37
2023-04-05T12:39:09.150Z,10.11
2023-04-05T12:41:36.685Z,10.04
2023-04-05T12:44:11.402Z,9.80
2023-04-05T12:46:39.466Z,9.64
2023-04-05T12:49:06.020Z,10.01
2023-04-05T12:51:32.817Z,9.87
2023-04-05T12:54:01.518Z,9.82
2023-04-05T12:56:30.995Z,9.74
2023-04-05T12:58:57.370Z,9.32
2023-04-05T13:01:23.797Z,9.07
2023-04-05T13:03:53.384Z,8.85
2023-04-05T13:06:23.277Z,8.96
2023-04-05T13:08:50.902Z,8.64
2023-04-05T13:11:17.324Z,8.68
2023-04-05T13:13:44.190Z,9.06
2023-04-05T13:16:10.632Z,8.80
2023-04-05T13:18:37.209Z,8.62
2023-04-05T13:21:08.015Z,8.78
2023-04-05T13:23:34.805Z,8.93
2023-04-05T13:26:01.254Z,8.98
2023-04-05T13:28:28.129Z,9.32
2023-04-05T13:30:54.660Z,9.55
2023-04-05T13:33:21.322Z,9.71
2023-04-05T13:35:47.951Z,9.79
2023-04-05T13:38:14.428Z,10.06
2023-04-05T13:40:41.830Z,10.10
2023-04-05T13:43:08.319Z,10.15
2023-04-05T13:45:34.853Z,10.32
2023-04-05T13:48:04.259Z,10.12
2023-04-05T13:50:31.053Z,10.03
2023-04-05T13:52:57.593Z,10.54
2023-04-05T13:55:24.988Z,10.21
2023-04-05T13:57:51.342Z,10.20
2023-04-05T14:00:18.038Z,10.61
2023-04-05T14:02:45.330Z,10.51
2023-04-05T14:05:11.965Z,10.50
2023-04-05T14:07:39.653Z,10.42
2023-04-05T14:10:07.428Z,9.66
2023-04-05T14:12:34.556Z,9.57
2023-04-05T14:15:01.201Z,8.95
2023-04-05T14:17:27.878Z,8.82
2023-04-05T14:19:54.511Z,8.82
2023-04-05T14:22:21.894Z,8.91
2023-04-05T14:24:48.761Z,8.93
2023-04-05T14:27:15.996Z,8.92
2023-04-05T14:29:44.232Z,8.60
2023-04-05T14:32:10.893Z,8.68
2023-04-05T14:34:37.490Z,8.44
2023-04-05T14:37:04.185Z,8.05
2023-04-05T14:39:30.892Z,8.41
2023-04-05T14:41:57.692Z,8.63
2023-04-05T14:44:25.789Z,8.61
2023-04-05T14:46:52.486Z,8.58
2023-04-05T14:49:19.056Z,8.44
2023-04-05T14:51:45.543Z,8.73
2023-04-05T14:54:12.405Z,8.91
2023-04-05T14:56:38.916Z,8.92
2023-04-05T14:59:05.575Z,9.12
2023-04-05T15:01:32.157Z,9.14
2023-04-05T15:03:58.676Z,9.13
2023-04-05T15:06:25.143Z,8.76
2023-04-05T15:08:52.381Z,8.88
2023-04-05T15:11:18.843Z,8.97
2023-04-05T15:13:45.467Z,9.06
2023-04-05T15:16:12.065Z,9.18
2023-04-05T15:18:38.985Z,9.04
2023-04-05T15:21:05.925Z,8.80
2023-04-05T15:23:35.415Z,8.85
2023-04-05T15:26:02.033Z,8.91
2023-04-05T15:28:28.892Z,8.90
2023-04-05T15:30:55.268Z,9.16
2023-04-05T15:33:21.692Z,8.76
2023-04-05T15:35:48.200Z,9.09
2023-04-05T15:38:16.618Z,8.86
2023-04-05T15:40:46.539Z,9.01
2023-04-05T15:43:13.070Z,9.27
2023-04-05T15:45:39.520Z,9.18
2023-04-05T15:48:07.382Z,8.85
2023-04-05T15:50:33.897Z,8.68
2023-04-05T15:53:00.403Z,9.04
2023-04-05T15:55:26.796Z,9.01
2023-04-05T15:57:56.036Z,8.78
2023-04-05T16:00:22.768Z,8.85
2023-04-05T16:02:49.460Z,8.86
2023-04-05T16:05:16.056Z,8.75
2023-04-05T16:07:42.548Z,8.97
2023-04-05T16:10:09.256Z,8.74
2023-04-05T16:12:35.788Z,8.52
2023-04-05T16:15:03.484Z,8.72
2023-04-05T16:17:30.436Z,8.48
2023-04-05T16:19:57.479Z,8.65
2023-04-05T16:22:24.429Z,8.48
2023-04-05T16:24:50.756Z,8.30
2023-04-05T16:27:17.619Z,8.36
2023-04-05T16:29:44.025Z,8.21
2023-04-05T16:32:10.560Z,8.36
2023-04-05T16:34:36.959Z,8.09
2023-04-05T16:37:03.366Z,8.17
2023-04-05T16:39:31.050Z,8.05
2023-04-05T16:41:57.490Z,8.06
2023-04-05T16:44:23.952Z,7.84
2023-04-05T16:46:50.520Z,7.79
2023-04-05T16:49:16.921Z,7.77
2023-04-05T16:51:43.335Z,7.66
2023-04-05T16:54:09.702Z,7.74
2023-04-05T16:56:37.048Z,7.73
2023-04-05T16:59:06.595Z,7.49
2023-04-05T17:01:34.470Z,7.48
2023-04-05T17:04:00.868Z,7.32
2023-04-05T17:06:27.926Z,7.28
2023-04-05T17:08:54.323Z,7.23
2023-04-05T17:11:21.298Z,7.04
2023-04-05T17:13:47.649Z,6.95
2023-04-05T17:16:14.359Z,6.86
2023-04-05T17:18:41.996Z,6.76
2023-04-05T17:21:08.472Z,6.70
2023-04-05T17:23:34.826Z,6.59
2023-04-05T17:26:01.714Z,6.48
2023-04-05T17:28:28.057Z,6.37
2023-04-05T17:30:55.766Z,6.27
2023-04-05T17:33:22.204Z,6.11
2023-04-05T17:35:49.053Z,6.00
2023-04-05T17:38:15.833Z,5.88
2023-04-05T17:40:42.223Z,5.85
2023-04-05T17:43:08.777Z,5.70
2023-04-05T17:45:36.727Z,5.55
2023-04-05T17:48:03.283Z,5.46
2023-04-05T17:50:29.767Z,5.43
2023-04-05T17:52:57.116Z,5.31
2023-04-05T17:55:23.902Z,5.30
2023-04-05T17:57:50.408Z,5.20
2023-04-05T18:00:17.342Z,5.13
2023-04-05T18:02:45.583Z,4.96
2023-04-05T18:05:12.354Z,4.88
2023-04-05T18:07:38.775Z,4.75
2023-04-05T18:10:05.635Z,5.01
2023-04-05T18:12:32.680Z,5.06
2023-04-05T18:14:59.063Z,4.82
2023-04-05T18:17:25.647Z,4.68
2023-04-05T18:19:52.928Z,4.61
2023-04-05T18:22:19.957Z,4.51
2023-04-05T18:24:46.351Z,4.28
2023-04-05T18:27:13.044Z,4.41
2023-04-05T18:29:39.453Z,4.22
2023-04-05T18:32:06.992Z,4.34
2023-04-05T18:34:34.528Z,4.25
2023-04-05T18:37:01.348Z,4.18
2023-04-05T18:39:27.873Z,4.11
2023-04-05T18:41:54.954Z,3.94
2023-04-05T18:44:21.413Z,3.86
2023-04-05T18:46:49.059Z,3.92
2023-04-05T18:49:15.921Z,4.02
2023-04-05T18:51:42.240Z,3.89
2023-04-05T18:54:09.106Z,3.75
2023-04-05T18:56:35.427Z,3.53
2023-04-05T18:59:01.815Z,3.39
2023-04-05T19:01:29.314Z,3.30
2023-04-05T19:03:56.076Z,3.31
2023-04-05T19:06:22.472Z,3.29
2023-04-05T19:08:48.891Z,3.22
2023-04-05T19:11:15.463Z,2.95
2023-04-05T19:13:42.176Z,3.10
2023-04-05T19:16:08.867Z,3.27
2023-04-05T19:18:35.628Z,3.17
2023-04-05T19:21:02.045Z,3.12
2023-04-05T19:23:28.631Z,2.98
2023-04-05T19:25:56.186Z,2.80
2023-04-05T19:28:24.082Z,2.84
2023-04-05T19:30:51.021Z,2.52
2023-04-05T19:33:19.040Z,2.71
2023-04-05T19:35:46.718Z,2.93
2023-04-05T19:38:13.138Z,2.92
2023-04-05T19:40:39.553Z,2.87
2023-04-05T19:43:06.095Z,3.05
2023-04-05T19:45:32.480Z,3.12
2023-04-05T19:48:00.377Z,2.88
2023-04-05T19:50:59.448Z,2.68
2023-04-05T19:53:44.107Z,2.62
2023-04-05T19:56:28.512Z,2.62
2023-04-05T19:59:17.453Z,2.47
2023-04-05T20:01:47.288Z,2.35
2023-04-05T20:04:22.302Z,2.21
2023-04-05T20:06:55.710Z,2.21
2023-04-05T20:09:22.787Z,2.01
2023-04-05T20:11:50.918Z,1.98
2023-04-05T20:14:18.285Z,1.98
2023-04-05T20:16:44.897Z,2.02
2023-04-05T20:19:12.131Z,2.07
2023-04-05T20:21:40.106Z,2.15
2023-04-05T20:24:07.729Z,2.01
2023-04-05T20:26:34.428Z,1.96
2023-04-05T20:29:01.484Z,1.99
2023-04-05T20:31:29.428Z,1.72
2023-04-05T20:33:56.966Z,1.66
2023-04-05T20:36:27.209Z,1.49
2023-04-05T20:38:53.576Z,1.43
2023-04-05T20:41:20.084Z,1.66
2023-04-05T20:43:46.750Z,1.68
2023-04-05T20:46:13.702Z,1.59
2023-04-05T20:48:40.128Z,1.43
2023-04-05T20:51:07.658Z,1.28
2023-04-05T20:53:36.522Z,1.00
2023-04-05T20:56:04.113Z,1.24
2023-04-05T20:58:30.576Z,1.16
2023-04-05T21:00:57.501Z,1.03
2023-04-05T21:03:24.169Z,1.23
2023-04-05T21:05:51.125Z,1.23
2023-04-05T21:08:17.893Z,1.42
2023-04-05T21:10:44.329Z,1.25
2023-04-05T21:13:10.752Z,1.27
2023-04-05T21:15:37.203Z,1.28
2023-04-05T21:18:05.925Z,1.33
2023-04-05T21:20:32.458Z,1.15
2023-04-05T21:22:59.143Z,1.26
2023-04-05T21:25:25.866Z,1.22
2023-04-05T21:27:52.355Z,1.00
2023-04-05T21:30:18.780Z,1.15
2023-04-05T21:32:45.230Z,1.26
2023-04-05T21:35:11.594Z,1.15
2023-04-05T21:37:37.997Z,1.21
2023-04-05T21:40:04.823Z,1.21
2023-04-05T21:42:31.673Z,1.14
2023-04-05T21:44:58.300Z,1.08
2023-04-05T21:47:24.889Z,0.88
2023-04-05T21:49:52.726Z,0.95
2023-04-05T21:52:19.254Z,0.97
2023-04-05T21:54:46.046Z,0.81
2023-04-05T21:57:12.380Z,0.86
2023-04-05T21:59:38.939Z,1.03
2023-04-05T22:02:06.797Z,0.86
2023-04-05T22:04:35.062Z,1.01
2023-04-05T22:07:01.372Z,0.91
2023-04-05T22:09:31.900Z,0.63
2023-04-05T22:11:59.346Z,0.73
2023-04-05T22:14:26.293Z,0.52
2023-04-05T22:16:53.310Z,0.67
2023-04-05T22:19:21.051Z,0.87
2023-04-05T22:21:47.400Z,0.66
2023-04-05T22:24:13.855Z,0.57
2023-04-05T22:26:41.725Z,0.41
2023-04-05T22:29:08.820Z,0.50
2023-04-05T22:31:35.647Z,0.46
2023-04-05T22:34:02.017Z,0.30
2023-04-05T22:36:28.366Z,0.61
2023-04-05T22:38:54.730Z,0.51
2023-04-05T22:41:21.268Z,0.56
2023-04-05T22:43:47.597Z,0.61
2023-04-05T22:46:13.975Z,0.42
2023-04-05T22:48:40.339Z,0.43
2023-04-05T22:51:08.286Z,0.48
2023-04-05T22:53:34.732Z,0.57
2023-04-05T22:56:01.076Z,0.53
2023-04-05T22:58:29.671Z,0.45
2023-04-05T23:00:56.432Z,0.53
2023-04-05T23:03:22.807Z,0.32
2023-04-05T23:05:52.040Z,0.30
2023-04-05T23:08:18.351Z,0.20
2023-04-05T23:10:44.777Z,0.21
2023-04-05T23:13:12.270Z,0.50
2023-04-05T23:15:38.698Z,0.28
2023-04-05T23:18:05.218Z,-0.13
2023-04-05T23:20:31.723Z,0.06
2023-04-05T23:22:58.184Z,0.25
2023-04-05T23:25:25.532Z,0.02
2023-04-05T23:27:53.718Z,0.09
2023-04-05T23:30:20.243Z,0.17
2023-04-05T23:32:46.681Z,0.21
2023-04-05T23:35:13.183Z,0.14
2023-04-05T23:37:39.525Z,-0.25
2023-04-05T23:40:06.274Z,-0.17
2023-04-05T23:42:32.637Z,-0.24
2023-04-05T23:45:00.220Z,-0.17
2023-04-05T23:47:26.585Z,-0.12
2023-04-05T23:49:52.954Z,-0.17
2023-04-05T23:52:19.333Z,-0.44
2023-04-05T23:54:45.924Z,-0.25
2023-04-05T23:57:12.253Z,-0.19
2023-04-05T23:59:38.678Z,-0.14
